Time;durP1;ratioP1;P1;durP2;ratioP2;P2;SDS_P1;SDS_P2;PMS_P1;PMS_P2;Temp;Humidity;BMP_temperature;BMP_pressure;BME280_temperature;BME280_humidity;BME280_pressure;Samples;Min_cycle;Max_cycle;Signal;HPM_P1;HPM_P2
2023/06/16 00:01:36;;;;;;;5.55;4.10;;;14.90;99.90;;;;;;6116447;23;20743;-88
2023/06/16 00:04:27;;;;;;;5.22;4.15;;;15.00;99.90;;;;;;6118976;23;20077;-87
2023/06/16 00:07:23;;;;;;;6.25;4.22;;;15.00;99.90;;;;;;6146698;23;20026;-87
2023/06/16 00:10:11;;;;;;;10.02;4.57;;;15.10;99.90;;;;;;6125892;23;20173;-88
2023/06/16 00:12:58;;;;;;;7.97;4.70;;;15.00;99.90;;;;;;6112055;23;20030;-89
2023/06/16 00:15:50;;;;;;;6.60;4.07;;;15.00;99.90;;;;;;6130993;23;20030;-88
2023/06/16 00:18:43;;;;;;;6.35;4.35;;;15.00;99.90;;;;;;6133306;23;20033;-89
2023/06/16 00:21:37;;;;;;;6.30;4.60;;;15.00;99.90;;;;;;6129714;23;20338;-89
2023/06/16 00:24:26;;;;;;;8.30;4.25;;;14.90;99.90;;;;;;6128276;23;20311;-88
2023/06/16 00:27:13;;;;;;;5.25;4.53;;;14.90;99.90;;;;;;6107980;23;20033;-89
2023/06/16 00:30:00;;;;;;;7.10;4.72;;;14.90;99.90;;;;;;6129294;23;20036;-89
2023/06/16 00:32:50;;;;;;;7.03;4.50;;;14.80;99.90;;;;;;6127891;23;20025;-90
2023/06/16 00:35:41;;;;;;;7.72;4.18;;;14.90;99.90;;;;;;6128806;23;20029;-88
2023/06/16 00:38:36;;;;;;;9.07;4.85;;;14.80;99.90;;;;;;6125364;23;20083;-89
2023/06/16 00:41:24;;;;;;;5.70;4.28;;;14.80;99.90;;;;;;6108723;23;20045;-89
2023/06/16 00:44:12;;;;;;;5.25;4.03;;;14.90;99.90;;;;;;6108458;23;20036;-89
2023/06/16 00:46:59;;;;;;;5.45;4.07;;;14.90;99.90;;;;;;6128077;23;20030;-89
2023/06/16 00:49:49;;;;;;;9.30;4.85;;;14.90;99.90;;;;;;6106155;23;20026;-89
2023/06/16 00:52:37;;;;;;;7.18;4.40;;;14.90;99.90;;;;;;6128037;23;20316;-89
2023/06/16 00:55:25;;;;;;;6.55;4.72;;;15.00;99.90;;;;;;6128133;23;20029;-89
2023/06/16 00:58:14;;;;;;;8.70;4.55;;;14.90;99.90;;;;;;6126965;23;20032;-89
2023/06/16 01:01:01;;;;;;;8.05;4.93;;;14.80;99.90;;;;;;6107871;23;20025;-88
2023/06/16 01:03:51;;;;;;;5.35;4.20;;;14.70;99.90;;;;;;6128583;23;20684;-89
2023/06/16 01:06:41;;;;;;;9.95;4.35;;;14.60;99.90;;;;;;6126882;23;20097;-88
2023/06/16 01:09:47;;;;;;;8.02;4.32;;;14.50;99.90;;;;;;6129102;23;20029;-88
2023/06/16 01:13:03;;;;;;;8.10;3.90;;;14.40;99.90;;;;;;6127319;23;20034;-89
2023/06/16 01:15:55;;;;;;;5.95;4.35;;;14.40;99.90;;;;;;6128973;23;20114;-88
2023/06/16 01:18:43;;;;;;;5.38;3.72;;;14.40;99.90;;;;;;6128033;23;20034;-89
2023/06/16 01:21:48;;;;;;;5.80;4.57;;;14.40;99.90;;;;;;6134224;23;20026;-89
2023/06/16 01:24:37;;;;;;;9.75;4.47;;;14.30;99.90;;;;;;6113535;23;20026;-88
2023/06/16 01:27:29;;;;;;;8.98;4.78;;;14.30;99.90;;;;;;6137050;23;20030;-85
2023/06/16 01:30:19;;;;;;;6.82;5.20;;;14.20;99.90;;;;;;6129086;23;20022;-89
2023/06/16 01:33:07;;;;;;;6.20;4.47;;;14.10;99.90;;;;;;6131142;23;20030;-89
2023/06/16 01:35:55;;;;;;;4.95;4.32;;;14.10;99.90;;;;;;6138545;23;20037;-89
2023/06/16 01:38:43;;;;;;;5.88;4.47;;;14.10;99.90;;;;;;6107377;23;20038;-88
2023/06/16 01:41:31;;;;;;;5.28;4.40;;;14.10;99.90;;;;;;6129706;23;20026;-89
2023/06/16 01:44:20;;;;;;;7.20;5.65;;;14.10;99.90;;;;;;6129864;23;20029;-89
2023/06/16 01:47:08;;;;;;;7.97;4.57;;;14.00;99.90;;;;;;6129831;23;20097;-89
2023/06/16 01:49:57;;;;;;;9.23;5.43;;;13.80;99.90;;;;;;6129559;23;20176;-89
2023/06/16 01:52:45;;;;;;;7.45;4.97;;;13.70;99.90;;;;;;6128219;23;20334;-88
2023/06/16 01:55:32;;;;;;;6.18;4.97;;;13.70;99.90;;;;;;6129076;23;20026;-88
2023/06/16 01:58:23;;;;;;;5.95;4.47;;;13.70;99.90;;;;;;6108538;23;20134;-90
2023/06/16 02:01:17;;;;;;;7.55;5.18;;;13.60;99.90;;;;;;6128770;23;20108;-88
2023/06/16 02:04:14;;;;;;;11.38;5.35;;;13.60;99.90;;;;;;6107718;23;20030;-89
2023/06/16 02:07:09;;;;;;;7.07;4.70;;;13.60;99.90;;;;;;6128349;23;20026;-90
2023/06/16 02:10:01;;;;;;;7.47;4.55;;;13.60;99.90;;;;;;6126926;23;20036;-89
2023/06/16 02:12:49;;;;;;;7.18;4.65;;;13.60;99.90;;;;;;6127414;23;20068;-90
2023/06/16 02:15:36;;;;;;;6.97;4.68;;;13.60;99.90;;;;;;6126603;23;20375;-88
2023/06/16 02:18:27;;;;;;;8.43;4.82;;;13.60;99.90;;;;;;6130556;23;20022;-89
2023/06/16 02:21:16;;;;;;;9.75;4.45;;;13.50;99.90;;;;;;6128321;23;20056;-89
2023/06/16 02:24:04;;;;;;;7.78;5.13;;;13.60;99.90;;;;;;6107178;23;20033;-89
2023/06/16 02:26:52;;;;;;;7.80;5.72;;;13.60;99.90;;;;;;6108055;23;20401;-89
2023/06/16 02:29:40;;;;;;;8.07;5.60;;;13.50;99.90;;;;;;6129007;23;20029;-89
2023/06/16 02:32:29;;;;;;;8.32;5.45;;;13.40;99.90;;;;;;6129196;23;20037;-89
2023/06/16 02:35:17;;;;;;;8.98;5.13;;;13.20;99.90;;;;;;6128011;23;20022;-88
2023/06/16 02:38:05;;;;;;;6.72;5.00;;;13.10;99.90;;;;;;6127274;23;20299;-89
2023/06/16 02:40:52;;;;;;;6.78;5.20;;;13.00;99.90;;;;;;6128478;23;20048;-89
2023/06/16 02:43:42;;;;;;;8.27;4.85;;;12.90;99.90;;;;;;6129232;23;20048;-89
2023/06/16 02:46:29;;;;;;;10.60;5.50;;;12.90;99.90;;;;;;6106650;23;20382;-88
2023/06/16 02:49:16;;;;;;;9.88;5.32;;;12.90;99.90;;;;;;6128398;23;20029;-88
2023/06/16 02:52:04;;;;;;;9.23;5.63;;;12.90;99.90;;;;;;6128615;23;20022;-87
2023/06/16 02:54:51;;;;;;;6.82;5.78;;;12.90;99.90;;;;;;6128620;23;20025;-88
2023/06/16 02:57:41;;;;;;;7.90;5.88;;;12.80;99.90;;;;;;6107993;23;20022;-89
2023/06/16 03:00:34;;;;;;;7.40;5.43;;;12.70;99.90;;;;;;6127284;23;20030;-89
2023/06/16 03:03:21;;;;;;;7.45;5.60;;;12.60;99.90;;;;;;6106418;23;20026;-89
2023/06/16 03:06:11;;;;;;;10.93;5.82;;;12.60;99.90;;;;;;6128131;23;20026;-90
2023/06/16 03:09:00;;;;;;;10.98;6.35;;;12.60;99.90;;;;;;6107702;23;20032;-88
2023/06/16 03:11:51;;;;;;;11.38;6.80;;;12.60;99.90;;;;;;6127453;23;20029;-90
2023/06/16 03:14:41;;;;;;;8.23;6.53;;;12.50;99.90;;;;;;6127937;23;20025;-88
2023/06/16 03:17:28;;;;;;;12.10;6.30;;;12.50;99.90;;;;;;6108815;23;20026;-89
2023/06/16 03:20:18;;;;;;;9.32;6.38;;;12.50;99.90;;;;;;6127643;23;20033;-87
2023/06/16 03:23:06;;;;;;;8.13;5.85;;;12.40;99.90;;;;;;6130153;23;20030;-89
2023/06/16 03:25:53;;;;;;;8.93;6.13;;;12.30;99.90;;;;;;6126498;23;20106;-88
2023/06/16 03:28:41;;;;;;;8.82;6.72;;;12.30;99.90;;;;;;6128003;23;20037;-89
2023/06/16 03:31:33;;;;;;;8.38;6.68;;;12.20;99.90;;;;;;6109168;23;20037;-90
2023/06/16 03:34:20;;;;;;;9.63;6.53;;;12.10;99.90;;;;;;6113680;23;20041;-89
2023/06/16 03:37:11;;;;;;;7.78;6.28;;;12.10;99.90;;;;;;6116580;23;20261;-91
2023/06/16 03:40:05;;;;;;;7.80;6.68;;;12.00;99.90;;;;;;6134812;23;20037;-90
2023/06/16 03:42:58;;;;;;;9.40;6.47;;;11.90;99.90;;;;;;6128114;23;20040;-89
2023/06/16 03:45:47;;;;;;;15.90;11.50;;;11.90;99.90;;;;;;6127861;23;20037;-85
2023/06/16 03:48:34;;;;;;;9.43;7.57;;;11.80;99.90;;;;;;6126727;23;20026;-89
2023/06/16 03:51:24;;;;;;;12.07;9.23;;;11.70;1.00;;;;;;6129974;23;20109;-89
2023/06/16 03:54:11;;;;;;;9.02;6.70;;;11.70;1.00;;;;;;6127501;23;20030;-88
2023/06/16 03:56:59;;;;;;;7.88;7.03;;;11.70;1.00;;;;;;6107539;23;20026;-87
2023/06/16 03:59:48;;;;;;;10.82;7.28;;;11.80;1.00;;;;;;6114331;23;20030;-84
2023/06/16 04:02:40;;;;;;;8.30;7.07;;;11.70;1.00;;;;;;6136137;23;20033;-89
2023/06/16 04:05:48;;;;;;;;;;;11.70;1.00;;;;;;6112004;23;20044;-91
2023/06/16 04:08:36;;;;;;;7.05;6.32;;;11.70;1.00;;;;;;6127255;23;19920;-87
2023/06/16 04:11:26;;;;;;;7.30;6.07;;;11.70;1.00;;;;;;6127147;23;20299;-89
2023/06/16 04:14:13;;;;;;;11.18;6.50;;;11.80;1.00;;;;;;6125213;23;20060;-91
2023/06/16 04:17:03;;;;;;;9.70;6.22;;;12.00;1.00;;;;;;6126870;23;20097;-90
2023/06/16 04:19:50;;;;;;;9.63;6.68;;;12.20;1.00;;;;;;6106384;23;20036;-82
2023/06/16 04:22:39;;;;;;;8.73;6.65;;;12.30;1.00;;;;;;6125460;23;20021;-83
2023/06/16 04:25:26;;;;;;;7.75;6.93;;;12.30;1.00;;;;;;6126008;23;20098;-84
2023/06/16 04:28:17;;;;;;;9.48;6.72;;;12.20;99.90;;;;;;6123448;23;20308;-84
2023/06/16 04:31:09;;;;;;;7.88;6.82;;;12.20;99.90;;;;;;6126771;23;20069;-82
2023/06/16 04:33:57;;;;;;;9.97;6.73;;;12.20;99.90;;;;;;6124614;23;20026;-82
2023/06/16 04:36:45;;;;;;;9.63;7.15;;;12.20;99.90;;;;;;6124972;23;20117;-81
2023/06/16 04:39:32;;;;;;;11.25;6.78;;;12.30;99.90;;;;;;6124899;23;20041;-82
2023/06/16 04:42:19;;;;;;;10.88;7.20;;;12.40;99.90;;;;;;6126877;23;20026;-82
2023/06/16 04:47:50;;;;;;;10.27;7.47;;;12.50;99.90;;;;;;6168511;23;20029;-85
2023/06/16 04:50:37;;;;;;;10.80;7.38;;;12.50;99.90;;;;;;6154547;23;20051;-84
2023/06/16 04:53:26;;;;;;;10.88;7.25;;;12.50;99.90;;;;;;6185801;23;20014;-84
2023/06/16 04:56:13;;;;;;;10.52;7.35;;;12.60;99.90;;;;;;6185085;23;20127;-85
2023/06/16 04:59:01;;;;;;;11.10;6.82;;;12.80;99.90;;;;;;6204038;23;20035;-85
2023/06/16 05:01:49;;;;;;;12.48;7.18;;;12.90;99.90;;;;;;6191589;23;20025;-85
2023/06/16 05:04:38;;;;;;;9.00;6.65;;;13.10;99.90;;;;;;6188803;23;20029;-86
2023/06/16 05:07:25;;;;;;;8.68;6.35;;;13.20;99.90;;;;;;6185173;23;20053;-83
2023/06/16 05:10:12;;;;;;;8.30;6.07;;;13.40;99.90;;;;;;6181541;23;20040;-83
2023/06/16 05:13:02;;;;;;;9.45;5.43;;;13.60;99.90;;;;;;6184817;23;20028;-83
2023/06/16 05:15:49;;;;;;;7.10;5.57;;;13.80;99.90;;;;;;6162355;23;20051;-83
2023/06/16 05:18:39;;;;;;;8.40;6.03;;;14.00;99.90;;;;;;6187946;23;20021;-83
2023/06/16 05:21:27;;;;;;;7.85;5.13;;;14.10;99.90;;;;;;6165282;23;20032;-82
2023/06/16 05:24:19;;;;;;;6.70;5.10;;;14.20;99.90;;;;;;6186663;23;20033;-83
2023/06/16 05:27:06;;;;;;;6.35;5.30;;;14.30;99.90;;;;;;6167332;23;20025;-83
2023/06/16 05:29:55;;;;;;;7.20;5.25;;;14.40;99.90;;;;;;6164075;23;20028;-83
2023/06/16 05:32:59;;;;;;;7.30;5.25;;;14.50;99.90;;;;;;6187028;23;20104;-84
2023/06/16 05:35:46;;;;;;;7.75;6.00;;;14.60;99.90;;;;;;6164362;23;20024;-85
2023/06/16 05:38:36;;;;;;;8.80;5.85;;;14.70;99.90;;;;;;6187146;23;20021;-83
2023/06/16 05:41:27;;;;;;;9.82;5.90;;;14.70;99.90;;;;;;6188206;23;20024;-84
2023/06/16 05:44:15;;;;;;;9.55;5.55;;;14.70;99.90;;;;;;6168132;23;20093;-85
2023/06/16 05:47:08;;;;;;;7.05;5.53;;;14.80;99.90;;;;;;6187550;23;20095;-83
2023/06/16 05:49:58;;;;;;;5.93;5.13;;;15.10;99.90;;;;;;6191128;23;20377;-85
2023/06/16 05:52:46;;;;;;;8.23;5.60;;;15.30;99.90;;;;;;6171037;23;20021;-87
2023/06/16 05:55:33;;;;;;;7.47;5.20;;;15.40;99.90;;;;;;6191339;23;20029;-88
2023/06/16 05:58:20;;;;;;;10.77;5.35;;;15.50;99.90;;;;;;6189345;23;20029;-87
2023/06/16 06:01:08;;;;;;;9.05;5.47;;;15.60;99.90;;;;;;6187957;23;20028;-88
2023/06/16 06:04:19;;;;;;;7.60;4.97;;;15.80;99.90;;;;;;6169923;23;20037;-87
2023/06/16 06:07:07;;;;;;;8.13;5.38;;;15.90;99.90;;;;;;6163667;23;20025;-87
2023/06/16 06:09:54;;;;;;;9.55;4.78;;;16.10;99.90;;;;;;6166268;23;20476;-87
2023/06/16 06:12:43;;;;;;;9.75;5.45;;;16.20;99.90;;;;;;6169188;23;20079;-86
2023/06/16 06:15:35;;;;;;;6.47;5.07;;;16.40;99.90;;;;;;6174132;23;20081;-89
2023/06/16 06:18:35;;;;;;;7.57;4.72;;;16.50;99.90;;;;;;6165464;23;20032;-88
2023/06/16 06:21:25;;;;;;;6.78;4.75;;;16.60;99.90;;;;;;6199442;23;20024;-87
2023/06/16 06:24:14;;;;;;;8.52;4.80;;;16.80;99.90;;;;;;6181980;23;20029;-87
2023/06/16 06:27:02;;;;;;;7.13;4.90;;;17.00;99.90;;;;;;6169419;23;20028;-89
2023/06/16 06:29:52;;;;;;;6.70;4.50;;;17.20;99.20;;;;;;6192801;23;20028;-88
2023/06/16 06:32:42;;;;;;;8.38;4.82;;;17.20;91.80;;;;;;6189573;23;20039;-90
2023/06/16 06:35:36;;;;;;;10.45;4.95;;;17.30;88.60;;;;;;6167723;23;20024;-88
2023/06/16 06:51:14;;;;;;;;;;;;;;;;;;;;;
2023/06/16 07:11:47;;;;;;;8.90;4.10;;;20.40;17.80;;;;;;6035527;23;20003;-90
2023/06/16 07:19:34;;;;;;;7.03;3.83;;;22.00;10.80;;;;;;6020856;23;20011;-91
2023/06/16 07:22:49;;;;;;;;;;;;;;;;;;;;;
2023/06/16 07:26:01;;;;;;;7.63;4.32;;;23.40;10.10;;;;;;6170748;23;20059;-89
2023/06/16 07:29:12;;;;;;;4.32;3.60;;;24.00;2.70;;;;;;6071601;23;20030;-90
2023/06/16 07:32:06;;;;;;;4.75;3.35;;;24.40;1.00;;;;;;6087328;23;20037;-89
2023/06/16 07:34:54;;;;;;;4.15;3.38;;;25.00;1.00;;;;;;6167559;23;20428;-88
2023/06/16 07:37:51;;;;;;;6.97;3.67;;;25.60;7.90;;;;;;6165152;23;20025;-90
2023/06/16 07:41:18;;;;;;;;;;;;;;;;;;;;;
2023/06/16 07:44:20;;;;;;;9.05;3.40;;;26.00;11.20;;;;;;6186242;23;20055;-89
2023/06/16 07:47:10;;;;;;;6.50;3.30;;;26.70;4.30;;;;;;6162253;23;20033;-88
2023/06/16 07:50:34;;;;;;;;;;;;;;;;;;;;;
2023/06/16 07:53:41;;;;;;;;;;;;;;;;;;;;;
2023/06/16 07:56:29;;;;;;;4.28;3.28;;;28.00;3.70;;;;;;6182909;23;20061;-89
2023/06/16 07:59:19;;;;;;;6.22;3.13;;;28.50;1.00;;;;;;6143465;23;20060;-89
2023/06/16 08:02:30;;;;;;;6.82;3.17;;;28.90;1.00;;;;;;6182431;23;20056;-88
2023/06/16 08:05:34;;;;;;;3.60;2.97;;;28.80;2.90;;;;;;6162795;23;20155;-88
2023/06/16 08:09:08;;;;;;;6.07;3.17;;;28.50;1.00;;;;;;6168112;23;20547;-90
2023/06/16 08:12:39;;;;;;;11.45;2.90;;;28.70;6.40;;;;;;6077201;23;20030;-89
2023/06/16 08:15:56;;;;;;;7.53;3.10;;;29.30;1.00;;;;;;5950493;23;20121;-92
2023/06/16 08:23:28;;;;;;;;;;;;;;;;;;;;;
2023/06/16 08:26:46;;;;;;;6.70;3.25;;;29.60;1.00;;;;;;6001047;23;20833;-92
2023/06/16 08:29:50;;;;;;;5.65;3.28;;;29.20;1.60;;;;;;5995549;23;20031;-90
2023/06/16 08:32:53;;;;;;;11.88;3.40;;;29.10;1.00;;;;;;6076599;23;20064;-89
2023/06/16 08:35:40;;;;;;;7.07;3.43;;;29.50;1.20;;;;;;6163368;23;20029;-90
2023/06/16 08:39:09;;;;;;;;;;;;;;;;;;;;;
2023/06/16 08:42:17;;;;;;;4.28;2.95;;;29.90;1.00;;;;;;6183087;23;20282;-87
2023/06/16 08:45:09;;;;;;;7.60;2.60;;;30.80;7.90;;;;;;6161534;23;20035;-86
2023/06/16 08:48:10;;;;;;;5.93;3.20;;;31.20;16.40;;;;;;6162408;23;20072;-88
2023/06/16 08:51:34;;;;;;;4.28;2.80;;;31.40;6.50;;;;;;6160636;23;20096;-89
2023/06/16 08:54:49;;;;;;;6.32;3.33;;;30.60;11.90;;;;;;6159634;23;20045;-88
2023/06/16 08:57:50;;;;;;;4.85;2.95;;;29.20;7.70;;;;;;6161687;23;20032;-84
2023/06/16 09:00:39;;;;;;;6.88;3.20;;;29.30;6.10;;;;;;6184244;23;20021;-90
2023/06/16 09:03:33;;;;;;;11.98;4.30;;;29.50;17.40;;;;;;6181567;23;20052;-86
2023/06/16 09:06:24;;;;;;;7.53;3.17;;;28.60;11.50;;;;;;6160155;23;20097;-87
2023/06/16 09:09:32;;;;;;;;;;;;;;;;;;;;;
2023/06/16 09:13:05;;;;;;;4.65;3.30;;;28.20;5.60;;;;;;6184569;23;20171;-88
2023/06/16 09:16:00;;;;;;;10.95;3.33;;;29.60;1.00;;;;;;6171109;23;20040;-87
2023/06/16 09:18:49;;;;;;;8.50;2.92;;;30.70;5.00;;;;;;6187601;23;20051;-86
2023/06/16 09:21:38;;;;;;;5.95;3.05;;;30.40;16.70;;;;;;6183450;23;20040;-85
2023/06/16 09:24:35;;;;;;;5.75;3.60;;;29.60;15.60;;;;;;6162028;23;20504;-85
2023/06/16 09:27:43;;;;;;;5.53;3.63;;;28.80;5.30;;;;;;6183494;23;20042;-85
2023/06/16 09:30:34;;;;;;;13.10;3.42;;;28.50;4.40;;;;;;6162401;23;20108;-84
2023/06/16 09:33:27;;;;;;;15.25;3.58;;;29.30;4.20;;;;;;6161741;23;20029;-85
2023/06/16 09:36:26;;;;;;;10.50;3.55;;;30.50;8.20;;;;;;6182514;23;20021;-85
2023/06/16 09:39:26;;;;;;;13.98;3.22;;;31.50;13.80;;;;;;6184256;23;20087;-85
2023/06/16 09:42:16;;;;;;;7.22;3.10;;;32.00;15.30;;;;;;6182109;23;20052;-83
2023/06/16 09:45:19;;;;;;;7.43;3.35;;;32.30;7.90;;;;;;6181676;23;20100;-85
2023/06/16 09:48:10;;;;;;;4.68;2.80;;;32.40;12.30;;;;;;6183974;23;20036;-85
2023/06/16 09:50:59;;;;;;;16.83;3.60;;;32.20;37.00;;;;;;6181548;23;20028;-84
2023/06/16 09:53:47;;;;;;;2.50;2.30;;;32.50;3.60;;;;;;6182648;23;20025;-83
2023/06/16 09:56:37;;;;;;;10.48;2.58;;;32.90;5.50;;;;;;6161423;23;20120;-86
2023/06/16 09:59:27;;;;;;;8.00;3.10;;;33.10;33.40;;;;;;6182817;23;20511;-84
2023/06/16 10:02:14;;;;;;;8.50;2.80;;;33.80;52.40;;;;;;6184750;23;20036;-82
2023/06/16 10:05:13;;;;;;;90.60;85.45;;;34.10;35.10;;;;;;6184712;23;20021;-83
2023/06/16 10:08:06;;;;;;;4.90;2.72;;;33.20;27.70;;;;;;6185866;23;20100;-84
2023/06/16 10:10:55;;;;;;;5.00;2.75;;;33.00;28.90;;;;;;6185829;23;20025;-82
2023/06/16 10:13:51;;;;;;;4.32;2.67;;;33.30;17.60;;;;;;6185264;23;20332;-83
2023/06/16 10:16:42;;;;;;;7.30;3.72;;;33.60;23.50;;;;;;6183201;23;20103;-85
2023/06/16 10:19:32;;;;;;;10.95;3.00;;;34.50;30.70;;;;;;6166485;23;20033;-83
2023/06/16 10:22:23;;;;;;;3.47;2.80;;;34.80;25.70;;;;;;6185266;23;20055;-85
2023/06/16 10:25:10;;;;;;;6.32;2.55;;;34.90;29.60;;;;;;6183007;23;20124;-83
2023/06/16 10:28:00;;;;;;;3.47;2.72;;;35.10;21.20;;;;;;6185241;23;20393;-87
2023/06/16 10:30:49;;;;;;;4.32;3.15;;;35.00;8.90;;;;;;6163897;23;20168;-85
2023/06/16 10:33:53;;;;;;;4.53;2.85;;;34.20;7.70;;;;;;6162596;23;20139;-85
2023/06/16 10:36:40;;;;;;;5.22;3.00;;;34.00;9.10;;;;;;6182705;23;20172;-87
2023/06/16 10:39:28;;;;;;;7.00;2.67;;;34.60;19.40;;;;;;6164949;23;20419;-87
2023/06/16 10:42:18;;;;;;;4.20;2.78;;;35.00;25.30;;;;;;6162187;23;20027;-87
2023/06/16 10:45:28;;;;;;;4.95;2.75;;;33.80;20.60;;;;;;6185404;23;20052;-86
2023/06/16 10:48:17;;;;;;;5.75;3.20;;;33.30;18.40;;;;;;6164205;23;20021;-89
2023/06/16 10:51:06;;;;;;;4.10;2.97;;;34.20;21.70;;;;;;6184773;23;20060;-90
2023/06/16 10:53:55;;;;;;;4.40;3.00;;;34.10;18.80;;;;;;6184317;23;20395;-89
2023/06/16 10:57:08;;;;;;;3.30;2.80;;;34.10;3.40;;;;;;6181281;23;20051;-89
2023/06/16 11:00:33;;;;;;;6.35;2.75;;;34.60;7.00;;;;;;6166597;23;20512;-84
2023/06/16 11:03:54;;;;;;;4.47;2.67;;;34.30;26.20;;;;;;6109303;23;20057;-86
2023/06/16 11:07:04;;;;;;;4.38;2.70;;;34.70;24.90;;;;;;6087901;23;20448;-86
2023/06/16 11:10:18;;;;;;;4.47;2.80;;;35.60;15.90;;;;;;6159810;23;20029;-84
2023/06/16 11:13:08;;;;;;;6.78;3.25;;;35.40;99.90;;;;;;6156802;23;20049;-84
2023/06/16 11:16:02;;;;;;;3.03;2.72;;;35.80;99.90;;;;;;6152809;23;20061;-88
2023/06/16 11:18:50;;;;;;;3.15;2.72;;;36.50;99.90;;;;;;6154606;23;20029;-85
2023/06/16 11:21:37;;;;;;;4.07;2.80;;;36.80;99.90;;;;;;6154908;23;20022;-88
2023/06/16 11:24:31;;;;;;;6.38;3.33;;;36.40;99.90;;;;;;6152723;23;20394;-88
2023/06/16 11:27:39;;;;;;;5.20;3.42;;;36.40;99.90;;;;;;6155943;23;20168;-88
2023/06/16 11:30:42;;;;;;;4.60;2.78;;;36.30;99.90;;;;;;6155652;23;20084;-88
2023/06/16 11:33:40;;;;;;;6.63;3.10;;;36.40;99.90;;;;;;6158973;23;20406;-86
2023/06/16 11:36:29;;;;;;;5.80;3.03;;;35.00;99.90;;;;;;6157013;23;20373;-90
2023/06/16 11:39:17;;;;;;;4.68;3.00;;;34.80;99.90;;;;;;6154517;23;20460;-87
2023/06/16 11:42:14;;;;;;;6.75;2.92;;;34.50;99.90;;;;;;6154131;23;20090;-86
2023/06/16 11:45:01;;;;;;;4.85;2.75;;;34.80;99.90;;;;;;6155332;23;20021;-89
2023/06/16 11:47:48;;;;;;;6.80;3.42;;;35.90;99.90;;;;;;6155097;23;20035;-85
2023/06/16 11:50:37;;;;;;;5.45;3.03;;;35.30;99.90;;;;;;6155701;23;20490;-85
2023/06/16 11:53:26;;;;;;;8.40;2.97;;;35.50;99.90;;;;;;6154801;23;20104;-88
2023/06/16 11:56:19;;;;;;;5.97;3.10;;;35.40;99.90;;;;;;6155754;23;20389;-86
2023/06/16 11:59:09;;;;;;;4.82;3.15;;;35.60;99.90;;;;;;6154562;23;20425;-86
2023/06/16 12:02:03;;;;;;;3.97;3.08;;;36.40;99.90;;;;;;6173191;23;20035;-88
2023/06/16 12:04:51;;;;;;;6.45;3.35;;;35.90;99.90;;;;;;6178356;23;20118;-88
2023/06/16 12:07:39;;;;;;;5.10;3.58;;;34.50;99.90;;;;;;6184680;23;20108;-91
2023/06/16 12:10:34;;;;;;;4.43;3.42;;;34.30;99.90;;;;;;6182143;23;20029;-86
2023/06/16 12:13:24;;;;;;;4.35;3.38;;;35.10;99.90;;;;;;6181702;23;20111;-88
2023/06/16 12:16:14;;;;;;;3.95;2.97;;;35.80;99.90;;;;;;6180188;23;20035;-86
2023/06/16 12:19:04;;;;;;;9.18;3.60;;;35.90;99.90;;;;;;6163344;23;20072;-87
2023/06/16 12:22:02;;;;;;;8.02;3.38;;;35.80;99.90;;;;;;6163459;23;20036;-89
2023/06/16 12:24:50;;;;;;;4.53;3.22;;;36.60;99.90;;;;;;6185960;23;20024;-90
2023/06/16 12:27:42;;;;;;;5.05;3.00;;;36.20;99.90;;;;;;6161842;23;20087;-89
2023/06/16 12:30:34;;;;;;;8.93;3.53;;;36.40;99.90;;;;;;6185466;23;20119;-87
2023/06/16 12:33:25;;;;;;;4.43;3.20;;;36.80;99.90;;;;;;6161720;23;20036;-86
2023/06/16 12:36:15;;;;;;;8.33;3.63;;;37.30;99.90;;;;;;6181228;23;20025;-86
2023/06/16 12:39:17;;;;;;;5.95;3.28;;;36.20;99.90;;;;;;6161805;23;20079;-87
2023/06/16 12:42:08;;;;;;;4.10;3.55;;;36.70;99.90;;;;;;6182807;23;20372;-87
2023/06/16 12:45:07;;;;;;;3.83;3.13;;;37.10;99.90;;;;;;6125789;23;20111;-88
2023/06/16 12:47:55;;;;;;;8.60;3.50;;;37.20;99.90;;;;;;6183269;23;20032;-87
2023/06/16 12:50:42;;;;;;;3.67;3.20;;;36.70;99.90;;;;;;6142448;23;20738;-85
2023/06/16 12:53:31;;;;;;;7.72;3.53;;;36.80;99.90;;;;;;6163069;23;20107;-87
2023/06/16 12:56:19;;;;;;;3.60;3.15;;;37.40;99.90;;;;;;6181270;23;20111;-83
2023/06/16 12:59:14;;;;;;;3.83;3.50;;;37.90;99.90;;;;;;6162935;23;20044;-86
2023/06/16 13:02:02;;;;;;;8.10;3.47;;;37.30;99.90;;;;;;6182824;23;20032;-87
2023/06/16 13:04:50;;;;;;;4.55;3.65;;;37.40;89.50;;;;;;6164156;23;20064;-86
2023/06/16 13:07:37;;;;;;;6.03;3.75;;;36.70;99.90;;;;;;6184733;23;20507;-85
2023/06/16 13:10:25;;;;;;;5.38;3.50;;;35.20;96.20;;;;;;6182466;23;20061;-83
2023/06/16 13:13:12;;;;;;;4.85;3.40;;;35.00;98.60;;;;;;6181179;23;20436;-85
2023/06/16 13:15:59;;;;;;;7.90;3.60;;;36.10;97.10;;;;;;6185539;23;20040;-85
2023/06/16 13:18:52;;;;;;;5.38;3.78;;;37.20;99.90;;;;;;6184368;23;20059;-84
2023/06/16 13:21:39;;;;;;;6.00;3.45;;;37.70;99.90;;;;;;6182293;23;20417;-85
2023/06/16 13:24:27;;;;;;;5.15;3.70;;;37.90;99.90;;;;;;6184576;23;20036;-86
2023/06/16 13:27:18;;;;;;;6.63;3.70;;;37.80;99.90;;;;;;6186625;23;20100;-87
2023/06/16 13:30:10;;;;;;;10.35;3.50;;;37.00;99.90;;;;;;6185509;23;20131;-88
2023/06/16 13:32:58;;;;;;;4.45;3.40;;;37.40;99.90;;;;;;6185074;23;20090;-88
2023/06/16 13:35:47;;;;;;;7.15;3.38;;;37.70;99.90;;;;;;6182585;23;20306;-84
2023/06/16 13:38:54;;;;;;;9.00;3.20;;;38.40;99.90;;;;;;6164887;23;20428;-88
2023/06/16 13:41:42;;;;;;;5.38;3.33;;;37.60;99.90;;;;;;6147476;23;20753;-85
2023/06/16 13:44:36;;;;;;;4.60;3.60;;;37.40;99.90;;;;;;6189264;23;20071;-88
2023/06/16 13:47:35;;;;;;;7.05;3.85;;;37.10;99.90;;;;;;6167284;23;20108;-85
2023/06/16 13:50:28;;;;;;;5.97;3.70;;;36.50;99.90;;;;;;6185853;23;20083;-89
2023/06/16 13:53:15;;;;;;;4.50;3.13;;;36.00;99.90;;;;;;6165558;23;20025;-87
2023/06/16 13:56:06;;;;;;;9.10;4.10;;;35.70;99.90;;;;;;6187637;23;20032;-87
2023/06/16 13:58:59;;;;;;;6.18;3.80;;;36.20;99.90;;;;;;6166867;23;20421;-87
2023/06/16 14:01:46;;;;;;;4.28;3.60;;;37.10;98.90;;;;;;6184790;23;20340;-86
2023/06/16 14:04:36;;;;;;;7.75;3.58;;;36.50;99.90;;;;;;6186975;23;20021;-87
2023/06/16 14:07:39;;;;;;;6.20;3.92;;;37.50;99.90;;;;;;6167051;23;20028;-86
2023/06/16 14:10:27;;;;;;;4.68;3.78;;;37.50;99.90;;;;;;6188047;23;20033;-87
2023/06/16 14:13:17;;;;;;;6.63;3.65;;;37.80;99.90;;;;;;6163752;23;20025;-88
2023/06/16 14:16:06;;;;;;;5.78;3.70;;;37.90;99.90;;;;;;6185849;23;20021;-88
2023/06/16 14:18:54;;;;;;;7.47;3.40;;;37.70;99.90;;;;;;6166519;23;20032;-88
2023/06/16 14:21:44;;;;;;;4.40;3.72;;;37.40;99.90;;;;;;6185013;23;20033;-86
2023/06/16 14:24:32;;;;;;;5.10;3.65;;;37.60;99.90;;;;;;6189093;23;20020;-90
2023/06/16 14:27:22;;;;;;;4.15;3.15;;;37.50;99.90;;;;;;6166235;23;20087;-88
2023/06/16 14:30:11;;;;;;;4.70;3.30;;;36.70;99.90;;;;;;6185208;23;20100;-88
2023/06/16 14:32:59;;;;;;;4.22;3.70;;;37.00;99.90;;;;;;6164309;23;20099;-90
2023/06/16 14:35:47;;;;;;;7.40;3.65;;;37.30;99.90;;;;;;6184065;23;20056;-87
2023/06/16 14:38:34;;;;;;;5.43;3.42;;;37.50;99.90;;;;;;6185952;23;20039;-82
2023/06/16 14:41:22;;;;;;;3.78;3.28;;;37.60;99.90;;;;;;6183469;23;20101;-83
2023/06/16 14:44:11;;;;;;;5.45;3.92;;;37.30;99.90;;;;;;6181980;23;20104;-84
2023/06/16 14:46:58;;;;;;;6.28;3.70;;;36.60;99.90;;;;;;6182548;23;20029;-82
2023/06/16 14:49:49;;;;;;;4.75;3.80;;;36.00;99.90;;;;;;6185149;23;20444;-82
2023/06/16 14:52:39;;;;;;;5.00;3.83;;;35.30;99.90;;;;;;6184410;23;20160;-81
2023/06/16 14:55:26;;;;;;;6.70;4.20;;;35.80;99.90;;;;;;6182729;23;20051;-83
2023/06/16 14:58:13;;;;;;;4.43;3.53;;;35.80;99.90;;;;;;6182149;23;20044;-82
2023/06/16 15:01:01;;;;;;;5.18;3.67;;;35.70;99.90;;;;;;6185113;23;20039;-83
2023/06/16 15:03:48;;;;;;;6.50;3.80;;;35.30;99.90;;;;;;6185181;23;20033;-83
2023/06/16 15:06:36;;;;;;;7.30;4.00;;;34.80;99.90;;;;;;6182467;23;20401;-83
2023/06/16 15:09:29;;;;;;;9.13;3.90;;;34.00;99.90;;;;;;6182587;23;20123;-80
2023/06/16 15:12:16;;;;;;;6.50;3.67;;;32.70;99.90;;;;;;6184232;23;20123;-83
2023/06/16 15:15:07;;;;;;;6.65;3.97;;;31.40;99.90;;;;;;6184870;23;20028;-82
2023/06/16 15:17:54;;;;;;;4.82;3.80;;;30.90;99.90;;;;;;6184878;23;20025;-82
2023/06/16 15:20:41;;;;;;;6.93;4.00;;;31.70;99.90;;;;;;6184509;23;20055;-82
2023/06/16 15:23:29;;;;;;;6.38;3.83;;;32.60;99.90;;;;;;6182995;23;20033;-81
2023/06/16 15:26:18;;;;;;;6.70;3.97;;;32.80;99.90;;;;;;6186464;23;20503;-80
2023/06/16 15:29:06;;;;;;;5.88;3.80;;;32.80;99.90;;;;;;6183545;23;20025;-81
2023/06/16 15:31:53;;;;;;;9.90;3.85;;;33.00;99.90;;;;;;6187194;23;20027;-83
2023/06/16 15:34:40;;;;;;;5.28;3.53;;;33.70;99.90;;;;;;6185361;23;20029;-83
2023/06/16 15:37:28;;;;;;;4.50;3.90;;;33.40;99.90;;;;;;6164047;23;20099;-83
2023/06/16 15:40:15;;;;;;;7.53;3.97;;;32.10;99.90;;;;;;6185005;23;20488;-82
2023/06/16 15:43:08;;;;;;;7.65;3.70;;;30.90;96.80;;;;;;6162672;23;20029;-82
2023/06/16 15:45:58;;;;;;;5.35;4.15;;;29.50;99.90;;;;;;6183845;23;20032;-82
2023/06/16 15:48:46;;;;;;;4.43;3.67;;;28.90;99.90;;;;;;6182872;23;20021;-83
2023/06/16 15:51:33;;;;;;;8.43;3.95;;;29.10;99.90;;;;;;6163752;23;20115;-82